sensor_id;sensor_type;location;lat;lon;timestamp;P1;durP1;ratioP1;P2;durP2;ratioP2
61704;SDS011;47627;48.078;11.522;2023-08-24T07:03:33;5.40;;;4.82;;
61704;SDS011;47627;48.078;11.522;2023-08-24T07:05:59;4.97;;;4.47;;
61704;SDS011;47627;48.078;11.522;2023-08-24T07:08:24;8.15;;;5.38;;
61704;SDS011;47627;48.078;11.522;2023-08-24T07:10:49;6.97;;;4.38;;
61704;SDS011;47627;48.078;11.522;2023-08-24T07:13:15;8.17;;;4.87;;
61704;SDS011;47627;48.078;11.522;2023-08-24T07:15:40;8.02;;;5.10;;
61704;SDS011;47627;48.078;11.522;2023-08-24T07:18:05;5.65;;;4.78;;
61704;SDS011;47627;48.078;11.522;2023-08-24T07:20:32;5.50;;;4.88;;
61704;SDS011;47627;48.078;11.522;2023-08-24T07:22:57;6.82;;;4.70;;
61704;SDS011;47627;48.078;11.522;2023-08-24T07:25:23;5.10;;;4.50;;
61704;SDS011;47627;48.078;11.522;2023-08-24T07:27:48;6.50;;;4.50;;
61704;SDS011;47627;48.078;11.522;2023-08-24T07:30:13;5.33;;;3.80;;
61704;SDS011;47627;48.078;11.522;2023-08-24T07:32:38;6.82;;;4.57;;
61704;SDS011;47627;48.078;11.522;2023-08-24T07:35:04;4.73;;;4.23;;
61704;SDS011;47627;48.078;11.522;2023-08-24T07:37:31;5.22;;;4.10;;
61704;SDS011;47627;48.078;11.522;2023-08-24T07:39:56;6.05;;;4.70;;
61704;SDS011;47627;48.078;11.522;2023-08-24T07:42:21;4.80;;;3.90;;
61704;SDS011;47627;48.078;11.522;2023-08-24T07:44:47;6.18;;;4.20;;
61704;SDS011;47627;48.078;11.522;2023-08-24T07:47:12;6.13;;;4.40;;
61704;SDS011;47627;48.078;11.522;2023-08-24T07:49:37;6.07;;;4.20;;
61704;SDS011;47627;48.078;11.522;2023-08-24T07:52:08;4.53;;;4.13;;
61704;SDS011;47627;48.078;11.522;2023-08-24T07:54:33;6.63;;;4.05;;
61704;SDS011;47627;48.078;11.522;2023-08-24T09:04:47;4.80;;;3.40;;
61704;SDS011;47627;48.078;11.522;2023-08-24T09:07:13;5.13;;;3.60;;
61704;SDS011;47627;48.078;11.522;2023-08-24T09:09:38;10.30;;;4.45;;
61704;SDS011;47627;48.078;11.522;2023-08-24T09:12:05;6.00;;;4.18;;
61704;SDS011;47627;48.078;11.522;2023-08-24T09:14:30;6.43;;;4.15;;
61704;SDS011;47627;48.078;11.522;2023-08-24T09:16:55;8.60;;;4.23;;
61704;SDS011;47627;48.078;11.522;2023-08-24T09:19:21;5.65;;;4.20;;
61704;SDS011;47627;48.078;11.522;2023-08-24T09:49:30;6.18;;;4.95;;
61704;SDS011;47627;48.078;11.522;2023-08-24T09:51:55;5.60;;;4.30;;
61704;SDS011;47627;48.078;11.522;2023-08-24T09:54:21;8.90;;;5.07;;
61704;SDS011;47627;48.078;11.522;2023-08-24T09:56:48;6.80;;;4.95;;
61704;SDS011;47627;48.078;11.522;2023-08-24T09:59:15;5.90;;;4.68;;
61704;SDS011;47627;48.078;11.522;2023-08-24T10:01:44;4.93;;;4.28;;
61704;SDS011;47627;48.078;11.522;2023-08-24T10:04:10;7.00;;;4.45;;
61704;SDS011;47627;48.078;11.522;2023-08-24T10:06:37;6.45;;;4.10;;
61704;SDS011;47627;48.078;11.522;2023-08-24T10:09:05;4.82;;;4.25;;
61704;SDS011;47627;48.078;11.522;2023-08-24T10:11:33;7.25;;;4.40;;
61704;SDS011;47627;48.078;11.522;2023-08-24T10:14:02;5.13;;;4.00;;
61704;SDS011;47627;48.078;11.522;2023-08-24T10:16:32;5.78;;;4.15;;
61704;SDS011;47627;48.078;11.522;2023-08-24T10:18:59;8.35;;;4.20;;
61704;SDS011;47627;48.078;11.522;2023-08-24T10:21:24;4.90;;;4.28;;
61704;SDS011;47627;48.078;11.522;2023-08-24T10:23:53;5.80;;;4.18;;
61704;SDS011;47627;48.078;11.522;2023-08-24T10:26:20;5.60;;;3.88;;
61704;SDS011;47627;48.078;11.522;2023-08-24T10:28:46;5.05;;;3.92;;
61704;SDS011;47627;48.078;11.522;2023-08-24T10:31:11;5.85;;;4.00;;
61704;SDS011;47627;48.078;11.522;2023-08-24T10:33:37;5.80;;;3.70;;
61704;SDS011;47627;48.078;11.522;2023-08-24T10:36:06;6.80;;;4.00;;
61704;SDS011;47627;48.078;11.522;2023-08-24T10:38:33;7.85;;;4.22;;
61704;SDS011;47627;48.078;11.522;2023-08-24T10:41:03;5.57;;;3.88;;
61704;SDS011;47627;48.078;11.522;2023-08-24T10:43:35;7.00;;;3.93;;
61704;SDS011;47627;48.078;11.522;2023-08-24T10:46:01;7.60;;;3.65;;
61704;SDS011;47627;48.078;11.522;2023-08-24T10:48:29;8.25;;;3.30;;
61704;SDS011;47627;48.078;11.522;2023-08-24T10:56:10;6.43;;;3.55;;
61704;SDS011;47627;48.078;11.522;2023-08-24T10:58:36;7.80;;;4.17;;
61704;SDS011;47627;48.078;11.522;2023-08-24T11:01:02;8.68;;;4.15;;
61704;SDS011;47627;48.078;11.522;2023-08-24T11:03:30;8.27;;;4.00;;
61704;SDS011;47627;48.078;11.522;2023-08-24T11:05:56;10.68;;;4.18;;
61704;SDS011;47627;48.078;11.522;2023-08-24T11:08:22;5.90;;;4.13;;
61704;SDS011;47627;48.078;11.522;2023-08-24T11:11:07;6.53;;;3.78;;
61704;SDS011;47627;48.078;11.522;2023-08-24T11:13:56;7.40;;;3.70;;
61704;SDS011;47627;48.078;11.522;2023-08-24T11:16:41;8.48;;;3.60;;
61704;SDS011;47627;48.078;11.522;2023-08-24T11:19:06;8.00;;;3.72;;
61704;SDS011;47627;48.078;11.522;2023-08-24T11:21:35;8.02;;;3.78;;
61704;SDS011;47627;48.078;11.522;2023-08-24T11:24:00;8.45;;;3.65;;
61704;SDS011;47627;48.078;11.522;2023-08-24T11:26:26;7.55;;;3.38;;
61704;SDS011;47627;48.078;11.522;2023-08-24T11:28:55;7.80;;;3.40;;
61704;SDS011;47627;48.078;11.522;2023-08-24T11:31:23;9.27;;;3.45;;
61704;SDS011;47627;48.078;11.522;2023-08-24T11:33:48;10.35;;;3.85;;
61704;SDS011;47627;48.078;11.522;2023-08-24T11:36:18;6.45;;;3.30;;
61704;SDS011;47627;48.078;11.522;2023-08-24T11:38:43;9.53;;;3.40;;
61704;SDS011;47627;48.078;11.522;2023-08-24T11:41:12;5.85;;;3.55;;
61704;SDS011;47627;48.078;11.522;2023-08-24T11:43:38;6.78;;;3.63;;
61704;SDS011;47627;48.078;11.522;2023-08-24T11:46:03;9.00;;;3.70;;
61704;SDS011;47627;48.078;11.522;2023-08-24T11:48:28;7.30;;;3.72;;
61704;SDS011;47627;48.078;11.522;2023-08-24T11:50:54;7.95;;;3.53;;
61704;SDS011;47627;48.078;11.522;2023-08-24T11:53:20;7.07;;;3.33;;
61704;SDS011;47627;48.078;11.522;2023-08-24T11:55:45;6.30;;;3.65;;
61704;SDS011;47627;48.078;11.522;2023-08-24T11:58:16;4.03;;;3.20;;
61704;SDS011;47627;48.078;11.522;2023-08-24T12:00:42;6.28;;;3.20;;
61704;SDS011;47627;48.078;11.522;2023-08-24T12:03:07;7.60;;;3.17;;
61704;SDS011;47627;48.078;11.522;2023-08-24T12:05:32;7.38;;;3.42;;
61704;SDS011;47627;48.078;11.522;2023-08-24T12:07:58;5.57;;;3.50;;
61704;SDS011;47627;48.078;11.522;2023-08-24T12:10:23;9.27;;;3.80;;
61704;SDS011;47627;48.078;11.522;2023-08-24T12:12:48;5.28;;;3.03;;
61704;SDS011;47627;48.078;11.522;2023-08-24T12:15:17;6.55;;;3.30;;
61704;SDS011;47627;48.078;11.522;2023-08-24T12:17:45;6.30;;;2.90;;
61704;SDS011;47627;48.078;11.522;2023-08-24T12:20:18;7.13;;;3.17;;
61704;SDS011;47627;48.078;11.522;2023-08-24T12:22:43;6.07;;;3.45;;
61704;SDS011;47627;48.078;11.522;2023-08-24T12:25:08;9.47;;;3.30;;
61704;SDS011;47627;48.078;11.522;2023-08-24T12:27:33;7.63;;;3.60;;
61704;SDS011;47627;48.078;11.522;2023-08-24T12:30:02;6.33;;;3.50;;
61704;SDS011;47627;48.078;11.522;2023-08-24T12:32:29;9.13;;;3.67;;
61704;SDS011;47627;48.078;11.522;2023-08-24T12:35:06;10.52;;;4.22;;
61704;SDS011;47627;48.078;11.522;2023-08-24T12:37:31;9.45;;;3.15;;
61704;SDS011;47627;48.078;11.522;2023-08-24T12:39:57;9.27;;;3.00;;
61704;SDS011;47627;48.078;11.522;2023-08-24T12:42:22;14.27;;;3.50;;
61704;SDS011;47627;48.078;11.522;2023-08-24T12:44:47;8.97;;;3.13;;
61704;SDS011;47627;48.078;11.522;2023-08-24T12:47:12;8.53;;;3.50;;
61704;SDS011;47627;48.078;11.522;2023-08-24T12:49:37;7.30;;;3.23;;
61704;SDS011;47627;48.078;11.522;2023-08-24T12:52:03;5.97;;;3.30;;
61704;SDS011;47627;48.078;11.522;2023-08-24T12:54:28;8.80;;;3.47;;
61704;SDS011;47627;48.078;11.522;2023-08-24T12:56:53;11.80;;;3.80;;
61704;SDS011;47627;48.078;11.522;2023-08-24T12:59:18;12.00;;;3.40;;
61704;SDS011;47627;48.078;11.522;2023-08-24T13:01:44;9.50;;;3.53;;
61704;SDS011;47627;48.078;11.522;2023-08-24T13:04:09;12.50;;;3.30;;
61704;SDS011;47627;48.078;11.522;2023-08-24T13:06:34;11.20;;;3.42;;
61704;SDS011;47627;48.078;11.522;2023-08-24T13:09:00;6.60;;;2.58;;
61704;SDS011;47627;48.078;11.522;2023-08-24T13:11:25;10.80;;;3.27;;
61704;SDS011;47627;48.078;11.522;2023-08-24T13:13:50;12.73;;;3.42;;
61704;SDS011;47627;48.078;11.522;2023-08-24T13:16:16;11.17;;;3.13;;
61704;SDS011;47627;48.078;11.522;2023-08-24T13:18:41;10.70;;;3.60;;
61704;SDS011;47627;48.078;11.522;2023-08-24T13:21:07;10.88;;;3.75;;
61704;SDS011;47627;48.078;11.522;2023-08-24T13:23:32;10.33;;;3.50;;
61704;SDS011;47627;48.078;11.522;2023-08-24T13:25:58;12.20;;;3.50;;
61704;SDS011;47627;48.078;11.522;2023-08-24T13:28:24;10.70;;;3.28;;
61704;SDS011;47627;48.078;11.522;2023-08-24T13:30:49;7.78;;;2.95;;
61704;SDS011;47627;48.078;11.522;2023-08-24T13:33:14;10.90;;;3.77;;
61704;SDS011;47627;48.078;11.522;2023-08-24T13:35:40;8.77;;;3.60;;
61704;SDS011;47627;48.078;11.522;2023-08-24T13:38:05;10.05;;;3.75;;
61704;SDS011;47627;48.078;11.522;2023-08-24T13:40:30;7.80;;;3.13;;
61704;SDS011;47627;48.078;11.522;2023-08-24T13:42:56;9.63;;;3.30;;
61704;SDS011;47627;48.078;11.522;2023-08-24T13:45:21;10.17;;;3.03;;
61704;SDS011;47627;48.078;11.522;2023-08-24T13:47:46;9.90;;;2.93;;
61704;SDS011;47627;48.078;11.522;2023-08-24T13:50:11;12.18;;;3.28;;
61704;SDS011;47627;48.078;11.522;2023-08-24T13:52:37;8.03;;;2.90;;
61704;SDS011;47627;48.078;11.522;2023-08-24T13:55:02;10.50;;;3.37;;
61704;SDS011;47627;48.078;11.522;2023-08-24T13:57:28;10.65;;;3.42;;
61704;SDS011;47627;48.078;11.522;2023-08-24T13:59:55;17.95;;;4.00;;
61704;SDS011;47627;48.078;11.522;2023-08-24T14:02:20;9.50;;;3.90;;
61704;SDS011;47627;48.078;11.522;2023-08-24T14:04:45;9.93;;;3.43;;
61704;SDS011;47627;48.078;11.522;2023-08-24T14:07:11;14.93;;;3.70;;
61704;SDS011;47627;48.078;11.522;2023-08-24T14:09:36;12.77;;;3.50;;
61704;SDS011;47627;48.078;11.522;2023-08-24T14:12:02;15.20;;;3.87;;
61704;SDS011;47627;48.078;11.522;2023-08-24T14:14:27;10.85;;;3.53;;
61704;SDS011;47627;48.078;11.522;2023-08-24T14:16:55;8.10;;;2.93;;
61704;SDS011;47627;48.078;11.522;2023-08-24T14:19:21;11.40;;;3.28;;
61704;SDS011;47627;48.078;11.522;2023-08-24T14:21:46;15.18;;;3.53;;
61704;SDS011;47627;48.078;11.522;2023-08-24T14:24:12;13.70;;;3.57;;
61704;SDS011;47627;48.078;11.522;2023-08-24T14:26:37;16.10;;;3.87;;
61704;SDS011;47627;48.078;11.522;2023-08-24T14:29:04;12.88;;;3.58;;
61704;SDS011;47627;48.078;11.522;2023-08-24T14:31:29;15.55;;;3.85;;
61704;SDS011;47627;48.078;11.522;2023-08-24T14:33:55;14.77;;;3.37;;
61704;SDS011;47627;48.078;11.522;2023-08-24T14:36:21;8.32;;;3.30;;
61704;SDS011;47627;48.078;11.522;2023-08-24T14:38:46;11.88;;;4.18;;
61704;SDS011;47627;48.078;11.522;2023-08-24T14:41:12;13.25;;;3.70;;
61704;SDS011;47627;48.078;11.522;2023-08-24T14:43:38;16.65;;;3.50;;
61704;SDS011;47627;48.078;11.522;2023-08-24T14:46:04;15.55;;;4.57;;
61704;SDS011;47627;48.078;11.522;2023-08-24T14:48:30;14.73;;;4.03;;
61704;SDS011;47627;48.078;11.522;2023-08-24T14:50:55;13.80;;;4.15;;
61704;SDS011;47627;48.078;11.522;2023-08-24T14:53:22;13.82;;;3.72;;
61704;SDS011;47627;48.078;11.522;2023-08-24T14:55:47;16.20;;;4.25;;
61704;SDS011;47627;48.078;11.522;2023-08-24T14:58:12;15.67;;;4.10;;
61704;SDS011;47627;48.078;11.522;2023-08-24T15:00:37;15.00;;;4.50;;
61704;SDS011;47627;48.078;11.522;2023-08-24T15:03:03;12.80;;;3.70;;
61704;SDS011;47627;48.078;11.522;2023-08-24T15:05:28;16.58;;;3.72;;
61704;SDS011;47627;48.078;11.522;2023-08-24T15:07:53;19.20;;;4.20;;
61704;SDS011;47627;48.078;11.522;2023-08-24T15:10:19;8.47;;;3.20;;
61704;SDS011;47627;48.078;11.522;2023-08-24T15:12:47;12.45;;;3.65;;
61704;SDS011;47627;48.078;11.522;2023-08-24T15:15:12;11.95;;;3.50;;
61704;SDS011;47627;48.078;11.522;2023-08-24T15:17:42;8.40;;;4.00;;
61704;SDS011;47627;48.078;11.522;2023-08-24T15:20:08;10.43;;;3.97;;
61704;SDS011;47627;48.078;11.522;2023-08-24T15:22:34;10.13;;;3.85;;
61704;SDS011;47627;48.078;11.522;2023-08-24T15:25:00;12.20;;;3.83;;
61704;SDS011;47627;48.078;11.522;2023-08-24T15:27:25;13.73;;;3.83;;
61704;SDS011;47627;48.078;11.522;2023-08-24T15:29:50;8.75;;;3.88;;
61704;SDS011;47627;48.078;11.522;2023-08-24T15:32:17;16.42;;;3.75;;
61704;SDS011;47627;48.078;11.522;2023-08-24T15:34:42;13.20;;;3.67;;
61704;SDS011;47627;48.078;11.522;2023-08-24T15:37:07;12.70;;;3.67;;
61704;SDS011;47627;48.078;11.522;2023-08-24T15:39:35;16.83;;;4.47;;
61704;SDS011;47627;48.078;11.522;2023-08-24T15:42:00;13.07;;;3.80;;
61704;SDS011;47627;48.078;11.522;2023-08-24T15:44:26;15.47;;;3.80;;
61704;SDS011;47627;48.078;11.522;2023-08-24T15:46:51;21.35;;;4.65;;
61704;SDS011;47627;48.078;11.522;2023-08-24T15:49:16;15.83;;;3.77;;
61704;SDS011;47627;48.078;11.522;2023-08-24T15:51:41;17.23;;;4.07;;
61704;SDS011;47627;48.078;11.522;2023-08-24T15:54:07;15.13;;;3.47;;
61704;SDS011;47627;48.078;11.522;2023-08-24T15:56:32;17.83;;;4.03;;
61704;SDS011;47627;48.078;11.522;2023-08-24T15:58:58;14.43;;;3.50;;
61704;SDS011;47627;48.078;11.522;2023-08-24T16:01:23;12.10;;;3.53;;
61704;SDS011;47627;48.078;11.522;2023-08-24T16:03:48;14.00;;;3.40;;
61704;SDS011;47627;48.078;11.522;2023-08-24T16:06:14;19.50;;;4.35;;
61704;SDS011;47627;48.078;11.522;2023-08-24T16:08:39;13.82;;;3.20;;
